Weekend O'PICARDIE AGNETZ (60) - Orange court

Date : 16/11/2019
Distance : 3,000 km

Place Nom Licence Catégorie Club Temps min/km CN à J-60 Points Différence Nouveau CN
1 QUEVAL Pauline 32377 D21 5907HF 0:17:08 5'42 5303 5109 -194 5659
2 LABARRE Maria 29467 D20 6205HF 0:17:15 5'45 5164 5074 -90 5696
3 PAULY Lilou 21041 D20 1705NA 0:18:19 6'06 6110 4779 -1331 5540
4 MERCIER Agnès 23079 D35 5907HF 0:18:31 6'10 5805 4727 -1078 5809
5 DUQUENNE Audrey 23885 D21 5907HF 0:18:35 6'11 5497 4710 -787 5476
6 PISZCZOROWICZ Sophie 28401 D45 7720IF 0:18:58 6'19 4697 4615 -82 4690
7 ROBERT Chloé 34021 D18 5116GE 0:19:38 6'32 4172 4458 +286 4215
8 THENOZ Perrine 30539 D45 7807IF 0:20:05 6'41 4680 4358 -322 4673
9 BEAUVISAGE Noémie 28535 D21 2704NM 0:20:11 6'43 4337 4261
10 ROUX Catherine 13270 D50 6205HF 0:20:27 6'49 4484 4280 -204 4754
11 RETION Alexandra 30325 D40 1905NA 0:20:41 6'53 4613 4232 -381 4736
12 ARROQUI Mathilde 23425 D21 5909HF 0:20:48 6'56 3401 4208 +807 3641
13 OLIVIER Romane 32070 D18 5116GE 0:20:49 6'56 4211 4205 -6 4335
14 VERCAUTEREN Clémence 19744 D18 6008HF 0:21:10 7'03 4286 4135 -151 4286
15 LECLERE Camille 36123 D21 7604NM 0:21:23 7'07 3304 4093 +789 3487
16 TISSANDIER Manon 34241 D18 2704NM 0:21:41 7'13 3517 4037 +520 3647
17 POULAIN Justine 29613 D14 2704NM 0:21:52 7'17 2896 4003 +1107 2987
18 RYBARCZYK emmanuelle 31442 D21 6203HF 0:22:21 7'27 3988 3916 -72 4088
19 MARECHAL Margaux 34384 D18 6205HF 0:22:49 7'36 3333 3836 +503 3570
20 DUPIN Margot 24856 D18 2704NM 0:22:54 7'38 3168 3822 +654 3832
21 GRENDEL Marie 16811 D45 2704NM 0:23:01 7'40 4560 3803 -757 4535
22 ARROQUI Anne-sophie 23424 D45 5909HF 0:23:01 7'40 3691 3803 +112 3688
23 POULAIN Elsa 29612 D14 2704NM 0:23:04 7'41 2281 3795 +1514 2613
24 VERCAUTEREN M-Claude 16229 D45 6008HF 0:23:18 7'46 4321 3757 -564 4178
25 DUBREUCQ Marie 25100 D21 5906HF 0:23:24 7'48 3741 1888
26 GUENIN Nathalie 16950 D45 5116GE 0:23:43 7'54 4481 3691 -790 4526
27 POULAIN Stéphanie 29611 D40 2704NM 0:23:50 7'56 3759 3673 -86 3804
28 PIERRE Elodie 30149 D35 2704NM 0:23:54 7'58 3715 3662 -53 3661
29 BESTEL Florence 17309 D45 9105IF 0:24:39 8'13 4371 3551 -820 4441
30 DUBREUCQ Perrine 25471 D21 5906HF 0:25:19 8'26 3457 1775
31 BUCAMP Emeline 30893 D18 6008HF 0:25:32 8'30 3311 3428 +117 3668
32 LANQUETIN Céline 18611 D21 5907HF 0:25:47 8'35 2795 3395 +600 3212
33 LESAGE Céline 34770 D45 7604NM 0:26:16 8'45 4166 3332 -834 4090
34 CORDEIRO MENDES Myriam 9235 D55 6008HF 0:26:18 8'46 3590 3328 -262 3698
35 NIZET Agathe 36822 D16 5116GE 0:27:37 9'12 2551 3169 +618 3047
36 LAVALLEE Nathalie 26461 D50 6008HF 0:27:59 9'19 2260 3128 +868 2503
37 COFFE Marie-Pierre 20358 D55 9502IF 0:29:41 9'53 3343 2949 -394 3502
38 TISSANDIER Agathe 32305 D14 2704NM 0:29:44 9'54 2805 2944 +139 2889
39 BEAUVISAGE Valérie 28538 D50 2704NM 0:29:54 9'58 4193 2927 -1266 4157
40 BAILLET Laëtitia 20995 D35 6008HF 0:30:16 10'05 2425 2892 +467 2734
41 VILLAME Uli 22384 D55 7719IF 0:30:59 10'19 3084 2825 -259 3132
42 BAUD Sandrine 27612 D40 6203HF 0:31:54 10'38 2719 2744 +25 2646
43 YVART Isabelle 32495 D40 7807IF 0:33:05 11'01 0 2646 2004
44 OLIVIER Béatrice 35044 D45 5116GE 0:33:22 11'07 2720 2623 -97 2857
45 BUCKMAN Laetitia 30728 D40 5909HF 0:33:35 11'11 3028 2606 -422 2320
46 BLANDIN Maïté 36809 D35 5909HF 0:35:39 11'53 2455 0
47 JACQUEMART Marina 28528 D21 5909HF 0:36:31 12'10 2053 2397 +344 2707
48 VERAY Marieke 38958 D45 6008HF 0:36:54 12'18 2372 0
49 CHOPIN Juliette 29940 D45 6203HF 0:40:38 13'32 738 2154 +1416 1749
50 DENIS Martine 12377 D70 9404IF 0:42:36 14'12 2359 2055 -304 2388
51 TISSANDIER Audrey 32792 D40 2704NM 0:45:00 15'00 3454 1945 -1509 3253
52 PRINS Sandrine 21461 D35 6208HF 0:45:02 15'00 1865 1944 +79 2414
53 LUDEWIG-JAMES Carol 15894 D80 5907HF 1:11:31 23'50 1483 1224 -259 1445
VASILOI Nadejda 36108 D40 7807IF abandon None 2832 0 2914
BOUCHE Nathalie 31830 D55 5116GE pm None 3791 0 3882
SCHONWASSER Isabelle 37845 D21 5906HF pm None 0 0
DUFEY Sophie 35633 D45 6008HF pm None 1360 0 2351